sensor_id;sensor_type;location;lat;lon;timestamp;pressure;altitude;pressure_sealevel;temperature;humidity
28027;BME280;15344;52.342;-1.290;2024-03-22T00:02:19;100523.93;;;12.30;100.00
28027;BME280;15344;52.342;-1.290;2024-03-22T00:04:45;100506.38;;;11.98;100.00
28027;BME280;15344;52.342;-1.290;2024-03-22T00:07:10;100506.33;;;12.05;100.00
28027;BME280;15344;52.342;-1.290;2024-03-22T00:09:36;100505.84;;;11.86;100.00
28027;BME280;15344;52.342;-1.290;2024-03-22T00:12:01;100506.55;;;12.32;100.00
28027;BME280;15344;52.342;-1.290;2024-03-22T00:14:26;100502.84;;;11.84;100.00
28027;BME280;15344;52.342;-1.290;2024-03-22T00:16:52;100496.62;;;12.38;100.00
28027;BME280;15344;52.342;-1.290;2024-03-22T00:19:17;100499.59;;;12.05;100.00
28027;BME280;15344;52.342;-1.290;2024-03-22T00:21:44;100497.78;;;11.12;100.00
28027;BME280;15344;52.342;-1.290;2024-03-22T00:24:09;100503.77;;;11.64;100.00
28027;BME280;15344;52.342;-1.290;2024-03-22T00:26:34;100502.28;;;11.87;100.00
28027;BME280;15344;52.342;-1.290;2024-03-22T00:29:00;100496.40;;;12.13;100.00
28027;BME280;15344;52.342;-1.290;2024-03-22T00:31:24;100490.76;;;11.39;100.00
28027;BME280;15344;52.342;-1.290;2024-03-22T00:33:50;100487.20;;;11.97;100.00
28027;BME280;15344;52.342;-1.290;2024-03-22T00:36:16;100489.11;;;12.12;100.00
28027;BME280;15344;52.342;-1.290;2024-03-22T00:38:42;100482.80;;;11.97;100.00
28027;BME280;15344;52.342;-1.290;2024-03-22T00:41:07;100485.33;;;12.31;100.00
28027;BME280;15344;52.342;-1.290;2024-03-22T00:43:33;100481.25;;;12.59;100.00
28027;BME280;15344;52.342;-1.290;2024-03-22T00:45:59;100472.31;;;12.31;100.00
28027;BME280;15344;52.342;-1.290;2024-03-22T00:48:24;100468.68;;;12.42;100.00
28027;BME280;15344;52.342;-1.290;2024-03-22T00:50:50;100467.96;;;12.72;100.00
28027;BME280;15344;52.342;-1.290;2024-03-22T00:53:16;100472.05;;;11.85;100.00
28027;BME280;15344;52.342;-1.290;2024-03-22T00:55:42;100475.35;;;12.21;100.00
28027;BME280;15344;52.342;-1.290;2024-03-22T00:58:07;100477.99;;;11.99;100.00
28027;BME280;15344;52.342;-1.290;2024-03-22T01:00:32;100478.63;;;12.49;100.00
28027;BME280;15344;52.342;-1.290;2024-03-22T01:02:58;100483.25;;;11.67;100.00
28027;BME280;15344;52.342;-1.290;2024-03-22T01:05:24;100487.75;;;12.35;100.00
28027;BME280;15344;52.342;-1.290;2024-03-22T01:07:50;100482.64;;;12.02;100.00
28027;BME280;15344;52.342;-1.290;2024-03-22T01:10:15;100481.08;;;11.67;100.00
28027;BME280;15344;52.342;-1.290;2024-03-22T01:12:40;100481.05;;;12.43;100.00
28027;BME280;15344;52.342;-1.290;2024-03-22T01:15:07;100482.84;;;11.55;100.00
28027;BME280;15344;52.342;-1.290;2024-03-22T01:17:31;100482.25;;;11.56;100.00
28027;BME280;15344;52.342;-1.290;2024-03-22T01:19:56;100477.86;;;11.28;100.00
28027;BME280;15344;52.342;-1.290;2024-03-22T01:22:22;100480.07;;;11.84;100.00
28027;BME280;15344;52.342;-1.290;2024-03-22T01:24:47;100478.20;;;11.95;100.00
28027;BME280;15344;52.342;-1.290;2024-03-22T01:27:12;100476.86;;;11.90;100.00
28027;BME280;15344;52.342;-1.290;2024-03-22T01:29:38;100471.84;;;12.41;100.00
28027;BME280;15344;52.342;-1.290;2024-03-22T01:32:04;100463.98;;;12.21;100.00
28027;BME280;15344;52.342;-1.290;2024-03-22T01:34:29;100466.79;;;12.56;100.00
28027;BME280;15344;52.342;-1.290;2024-03-22T01:36:55;100463.04;;;12.31;100.00
28027;BME280;15344;52.342;-1.290;2024-03-22T01:39:20;100465.39;;;11.01;100.00
28027;BME280;15344;52.342;-1.290;2024-03-22T01:41:45;100458.72;;;11.96;100.00
28027;BME280;15344;52.342;-1.290;2024-03-22T01:44:10;100453.58;;;11.91;100.00
28027;BME280;15344;52.342;-1.290;2024-03-22T01:46:36;100452.84;;;12.26;100.00
28027;BME280;15344;52.342;-1.290;2024-03-22T01:49:02;100444.53;;;11.46;100.00
28027;BME280;15344;52.342;-1.290;2024-03-22T01:51:26;100446.58;;;11.31;100.00
28027;BME280;15344;52.342;-1.290;2024-03-22T01:53:52;100437.80;;;11.91;100.00
28027;BME280;15344;52.342;-1.290;2024-03-22T01:56:17;100434.63;;;11.91;100.00
28027;BME280;15344;52.342;-1.290;2024-03-22T01:58:43;100438.54;;;11.62;100.00
28027;BME280;15344;52.342;-1.290;2024-03-22T02:01:08;100446.63;;;11.98;100.00
28027;BME280;15344;52.342;-1.290;2024-03-22T02:03:33;100448.79;;;11.83;100.00
28027;BME280;15344;52.342;-1.290;2024-03-22T02:05:59;100452.86;;;11.76;100.00
28027;BME280;15344;52.342;-1.290;2024-03-22T02:08:23;100450.15;;;12.68;100.00
28027;BME280;15344;52.342;-1.290;2024-03-22T02:10:49;100446.12;;;11.55;100.00
28027;BME280;15344;52.342;-1.290;2024-03-22T02:13:15;100449.96;;;12.45;100.00
28027;BME280;15344;52.342;-1.290;2024-03-22T02:15:40;100445.47;;;12.26;100.00
28027;BME280;15344;52.342;-1.290;2024-03-22T02:18:06;100442.70;;;11.94;100.00
28027;BME280;15344;52.342;-1.290;2024-03-22T02:20:30;100438.58;;;12.03;100.00
28027;BME280;15344;52.342;-1.290;2024-03-22T02:22:56;100437.28;;;11.92;100.00
28027;BME280;15344;52.342;-1.290;2024-03-22T02:25:22;100432.39;;;11.78;100.00
28027;BME280;15344;52.342;-1.290;2024-03-22T02:27:47;100433.45;;;11.75;100.00
28027;BME280;15344;52.342;-1.290;2024-03-22T02:30:13;100431.89;;;12.29;100.00
28027;BME280;15344;52.342;-1.290;2024-03-22T02:32:38;100432.00;;;12.32;100.00
28027;BME280;15344;52.342;-1.290;2024-03-22T02:35:04;100426.77;;;11.42;100.00
28027;BME280;15344;52.342;-1.290;2024-03-22T02:37:28;100422.23;;;11.88;100.00
28027;BME280;15344;52.342;-1.290;2024-03-22T02:39:54;100417.53;;;11.91;100.00
28027;BME280;15344;52.342;-1.290;2024-03-22T02:42:20;100417.70;;;12.14;100.00
28027;BME280;15344;52.342;-1.290;2024-03-22T02:44:45;100411.59;;;11.73;100.00
28027;BME280;15344;52.342;-1.290;2024-03-22T02:47:10;100414.34;;;11.60;100.00
28027;BME280;15344;52.342;-1.290;2024-03-22T02:49:37;100411.83;;;11.62;100.00
28027;BME280;15344;52.342;-1.290;2024-03-22T02:52:02;100404.46;;;11.44;100.00
28027;BME280;15344;52.342;-1.290;2024-03-22T02:54:28;100406.47;;;11.80;100.00
28027;BME280;15344;52.342;-1.290;2024-03-22T02:56:54;100404.90;;;12.67;100.00
28027;BME280;15344;52.342;-1.290;2024-03-22T02:59:20;100405.06;;;12.10;100.00
28027;BME280;15344;52.342;-1.290;2024-03-22T03:01:45;100403.85;;;11.86;100.00
28027;BME280;15344;52.342;-1.290;2024-03-22T03:04:11;100392.33;;;12.44;100.00
28027;BME280;15344;52.342;-1.290;2024-03-22T03:06:37;100392.98;;;12.19;100.00
28027;BME280;15344;52.342;-1.290;2024-03-22T03:09:02;100390.04;;;12.71;100.00
28027;BME280;15344;52.342;-1.290;2024-03-22T03:11:27;100388.93;;;11.76;100.00
28027;BME280;15344;52.342;-1.290;2024-03-22T03:13:53;100387.39;;;12.26;100.00
28027;BME280;15344;52.342;-1.290;2024-03-22T03:16:19;100382.18;;;13.05;100.00
28027;BME280;15344;52.342;-1.290;2024-03-22T03:18:45;100383.62;;;12.22;100.00
28027;BME280;15344;52.342;-1.290;2024-03-22T03:21:09;100379.47;;;12.02;100.00
28027;BME280;15344;52.342;-1.290;2024-03-22T03:23:35;100380.44;;;12.33;100.00
28027;BME280;15344;52.342;-1.290;2024-03-22T03:26:00;100372.90;;;13.42;100.00
28027;BME280;15344;52.342;-1.290;2024-03-22T03:28:25;100379.38;;;12.90;100.00
28027;BME280;15344;52.342;-1.290;2024-03-22T03:30:50;100376.60;;;13.38;100.00
28027;BME280;15344;52.342;-1.290;2024-03-22T03:33:16;100374.72;;;13.78;100.00
28027;BME280;15344;52.342;-1.290;2024-03-22T03:35:45;100380.43;;;13.11;100.00
28027;BME280;15344;52.342;-1.290;2024-03-22T03:38:07;100378.44;;;12.85;100.00
28027;BME280;15344;52.342;-1.290;2024-03-22T03:40:32;100378.98;;;12.66;100.00
28027;BME280;15344;52.342;-1.290;2024-03-22T03:42:58;100372.43;;;12.72;100.00
28027;BME280;15344;52.342;-1.290;2024-03-22T03:45:24;100369.00;;;12.61;100.00
28027;BME280;15344;52.342;-1.290;2024-03-22T03:47:50;100369.91;;;12.18;100.00
28027;BME280;15344;52.342;-1.290;2024-03-22T03:50:15;100369.49;;;12.18;100.00
28027;BME280;15344;52.342;-1.290;2024-03-22T03:52:40;100369.44;;;12.65;100.00
28027;BME280;15344;52.342;-1.290;2024-03-22T03:55:06;100368.91;;;12.47;100.00
28027;BME280;15344;52.342;-1.290;2024-03-22T03:57:31;100373.66;;;12.40;100.00
28027;BME280;15344;52.342;-1.290;2024-03-22T03:59:56;100374.22;;;12.51;100.00
28027;BME280;15344;52.342;-1.290;2024-03-22T04:02:22;100377.76;;;11.52;100.00
28027;BME280;15344;52.342;-1.290;2024-03-22T04:04:47;100378.57;;;12.11;100.00
28027;BME280;15344;52.342;-1.290;2024-03-22T04:07:12;100382.31;;;12.11;100.00
28027;BME280;15344;52.342;-1.290;2024-03-22T04:09:37;100383.56;;;12.48;100.00
28027;BME280;15344;52.342;-1.290;2024-03-22T04:12:04;100385.16;;;12.51;100.00
28027;BME280;15344;52.342;-1.290;2024-03-22T04:14:28;100391.05;;;12.26;100.00
28027;BME280;15344;52.342;-1.290;2024-03-22T04:16:54;100387.84;;;12.85;100.00
28027;BME280;15344;52.342;-1.290;2024-03-22T04:19:19;100390.20;;;12.78;100.00
28027;BME280;15344;52.342;-1.290;2024-03-22T04:21:44;100393.61;;;12.22;100.00
28027;BME280;15344;52.342;-1.290;2024-03-22T04:24:09;100388.02;;;12.73;100.00
28027;BME280;15344;52.342;-1.290;2024-03-22T04:26:35;100387.51;;;12.66;100.00
28027;BME280;15344;52.342;-1.290;2024-03-22T04:29:00;100393.41;;;12.06;100.00
28027;BME280;15344;52.342;-1.290;2024-03-22T04:31:26;100393.31;;;12.11;100.00
28027;BME280;15344;52.342;-1.290;2024-03-22T04:33:51;100396.60;;;12.07;100.00
28027;BME280;15344;52.342;-1.290;2024-03-22T04:36:17;100399.72;;;12.47;100.00
28027;BME280;15344;52.342;-1.290;2024-03-22T04:38:43;100402.54;;;12.05;100.00
28027;BME280;15344;52.342;-1.290;2024-03-22T04:41:08;100420.14;;;11.30;100.00
28027;BME280;15344;52.342;-1.290;2024-03-22T04:43:33;100425.66;;;11.51;100.00
28027;BME280;15344;52.342;-1.290;2024-03-22T04:45:58;100423.22;;;11.69;100.00
28027;BME280;15344;52.342;-1.290;2024-03-22T04:48:24;100420.58;;;11.52;100.00
28027;BME280;15344;52.342;-1.290;2024-03-22T04:50:50;100413.03;;;11.68;100.00
28027;BME280;15344;52.342;-1.290;2024-03-22T04:53:15;100408.55;;;12.25;100.00
28027;BME280;15344;52.342;-1.290;2024-03-22T04:55:40;100404.59;;;12.67;100.00
28027;BME280;15344;52.342;-1.290;2024-03-22T04:58:06;100400.32;;;12.07;100.00
28027;BME280;15344;52.342;-1.290;2024-03-22T05:00:32;100397.44;;;12.52;100.00
28027;BME280;15344;52.342;-1.290;2024-03-22T05:02:57;100394.10;;;12.72;100.00
28027;BME280;15344;52.342;-1.290;2024-03-22T05:05:22;100392.96;;;12.59;100.00
28027;BME280;15344;52.342;-1.290;2024-03-22T05:07:47;100391.80;;;12.31;100.00
28027;BME280;15344;52.342;-1.290;2024-03-22T05:10:13;100394.16;;;11.02;100.00
28027;BME280;15344;52.342;-1.290;2024-03-22T05:12:38;100386.97;;;12.47;100.00
28027;BME280;15344;52.342;-1.290;2024-03-22T05:15:05;100383.75;;;12.98;100.00
28027;BME280;15344;52.342;-1.290;2024-03-22T05:17:29;100378.16;;;12.71;100.00
28027;BME280;15344;52.342;-1.290;2024-03-22T05:19:54;100379.06;;;12.68;100.00
28027;BME280;15344;52.342;-1.290;2024-03-22T05:22:19;100377.12;;;12.04;100.00
28027;BME280;15344;52.342;-1.290;2024-03-22T05:24:45;100375.71;;;11.87;100.00
28027;BME280;15344;52.342;-1.290;2024-03-22T05:27:10;100379.21;;;11.13;100.00
28027;BME280;15344;52.342;-1.290;2024-03-22T05:29:35;100380.72;;;11.47;100.00
28027;BME280;15344;52.342;-1.290;2024-03-22T05:32:01;100386.60;;;11.76;100.00
28027;BME280;15344;52.342;-1.290;2024-03-22T05:34:26;100387.14;;;11.96;100.00
28027;BME280;15344;52.342;-1.290;2024-03-22T05:36:51;100386.79;;;12.78;100.00
28027;BME280;15344;52.342;-1.290;2024-03-22T05:39:17;100384.68;;;12.40;100.00
28027;BME280;15344;52.342;-1.290;2024-03-22T05:41:42;100377.68;;;12.87;100.00
28027;BME280;15344;52.342;-1.290;2024-03-22T05:44:08;100373.99;;;12.25;100.00
28027;BME280;15344;52.342;-1.290;2024-03-22T05:46:33;100363.01;;;12.80;100.00
28027;BME280;15344;52.342;-1.290;2024-03-22T05:48:58;100366.69;;;12.90;100.00
28027;BME280;15344;52.342;-1.290;2024-03-22T05:51:23;100370.76;;;13.17;100.00
28027;BME280;15344;52.342;-1.290;2024-03-22T05:53:49;100378.35;;;13.03;100.00
28027;BME280;15344;52.342;-1.290;2024-03-22T05:56:14;100378.86;;;13.06;100.00
28027;BME280;15344;52.342;-1.290;2024-03-22T05:58:40;100377.75;;;13.17;100.00
28027;BME280;15344;52.342;-1.290;2024-03-22T06:01:05;100380.96;;;13.79;100.00
28027;BME280;15344;52.342;-1.290;2024-03-22T06:03:30;100372.19;;;13.78;100.00
28027;BME280;15344;52.342;-1.290;2024-03-22T06:05:55;100363.11;;;14.32;100.00
28027;BME280;15344;52.342;-1.290;2024-03-22T06:08:20;100368.37;;;14.29;100.00
28027;BME280;15344;52.342;-1.290;2024-03-22T06:10:46;100372.02;;;14.35;100.00
28027;BME280;15344;52.342;-1.290;2024-03-22T06:13:11;100370.86;;;14.52;100.00
28027;BME280;15344;52.342;-1.290;2024-03-22T06:15:36;100367.42;;;14.52;100.00
28027;BME280;15344;52.342;-1.290;2024-03-22T06:18:02;100365.30;;;13.39;100.00
28027;BME280;15344;52.342;-1.290;2024-03-22T06:20:27;100363.10;;;14.55;100.00
28027;BME280;15344;52.342;-1.290;2024-03-22T06:22:52;100359.73;;;13.45;100.00
28027;BME280;15344;52.342;-1.290;2024-03-22T06:25:18;100371.43;;;13.76;100.00
28027;BME280;15344;52.342;-1.290;2024-03-22T06:27:43;100377.54;;;13.86;100.00
28027;BME280;15344;52.342;-1.290;2024-03-22T06:30:09;100378.25;;;14.40;100.00
28027;BME280;15344;52.342;-1.290;2024-03-22T06:32:33;100380.47;;;14.71;100.00
28027;BME280;15344;52.342;-1.290;2024-03-22T06:34:59;100387.46;;;13.82;100.00
28027;BME280;15344;52.342;-1.290;2024-03-22T06:37:24;100380.93;;;14.38;100.00
28027;BME280;15344;52.342;-1.290;2024-03-22T06:39:49;100384.99;;;13.72;100.00
28027;BME280;15344;52.342;-1.290;2024-03-22T06:42:15;100386.19;;;14.50;100.00
28027;BME280;15344;52.342;-1.290;2024-03-22T06:44:40;100387.59;;;13.46;100.00
28027;BME280;15344;52.342;-1.290;2024-03-22T06:47:05;100382.94;;;13.88;100.00
28027;BME280;15344;52.342;-1.290;2024-03-22T06:49:30;100388.78;;;13.12;100.00
28027;BME280;15344;52.342;-1.290;2024-03-22T06:51:56;100390.37;;;14.23;100.00
28027;BME280;15344;52.342;-1.290;2024-03-22T06:54:21;100389.70;;;12.89;100.00
28027;BME280;15344;52.342;-1.290;2024-03-22T06:56:46;100390.56;;;13.90;100.00
28027;BME280;15344;52.342;-1.290;2024-03-22T06:59:12;100394.26;;;13.37;100.00
28027;BME280;15344;52.342;-1.290;2024-03-22T07:01:37;100405.13;;;13.64;100.00
28027;BME280;15344;52.342;-1.290;2024-03-22T07:04:02;100398.51;;;13.20;100.00
28027;BME280;15344;52.342;-1.290;2024-03-22T07:06:28;100401.75;;;13.86;100.00
28027;BME280;15344;52.342;-1.290;2024-03-22T07:08:53;100397.89;;;14.00;100.00
28027;BME280;15344;52.342;-1.290;2024-03-22T07:11:18;100395.42;;;13.97;100.00
28027;BME280;15344;52.342;-1.290;2024-03-22T07:13:44;100398.66;;;13.85;100.00
28027;BME280;15344;52.342;-1.290;2024-03-22T07:16:09;100396.18;;;13.93;100.00
28027;BME280;15344;52.342;-1.290;2024-03-22T07:18:34;100393.87;;;13.39;100.00
28027;BME280;15344;52.342;-1.290;2024-03-22T07:20:59;100397.52;;;13.93;100.00
28027;BME280;15344;52.342;-1.290;2024-03-22T07:23:25;100391.04;;;13.24;100.00
28027;BME280;15344;52.342;-1.290;2024-03-22T07:25:50;100397.17;;;13.64;100.00
28027;BME280;15344;52.342;-1.290;2024-03-22T07:28:15;100393.18;;;13.32;100.00
28027;BME280;15344;52.342;-1.290;2024-03-22T07:30:41;100394.57;;;13.89;100.00
28027;BME280;15344;52.342;-1.290;2024-03-22T07:33:06;100395.51;;;13.62;100.00
28027;BME280;15344;52.342;-1.290;2024-03-22T07:35:31;100397.06;;;14.21;100.00
28027;BME280;15344;52.342;-1.290;2024-03-22T07:37:56;100403.93;;;14.20;100.00
28027;BME280;15344;52.342;-1.290;2024-03-22T07:40:22;100399.23;;;13.98;100.00
28027;BME280;15344;52.342;-1.290;2024-03-22T07:42:47;100412.11;;;12.00;100.00
28027;BME280;15344;52.342;-1.290;2024-03-22T07:45:12;100405.17;;;13.45;100.00
28027;BME280;15344;52.342;-1.290;2024-03-22T07:47:38;100409.09;;;12.18;100.00
28027;BME280;15344;52.342;-1.290;2024-03-22T07:50:03;100405.95;;;13.17;100.00
28027;BME280;15344;52.342;-1.290;2024-03-22T07:52:28;100407.06;;;13.16;100.00
28027;BME280;15344;52.342;-1.290;2024-03-22T07:54:54;100401.33;;;12.51;100.00
28027;BME280;15344;52.342;-1.290;2024-03-22T07:57:19;100403.06;;;12.33;100.00
28027;BME280;15344;52.342;-1.290;2024-03-22T07:59:45;100405.54;;;13.04;100.00
28027;BME280;15344;52.342;-1.290;2024-03-22T08:02:09;100403.17;;;12.83;100.00
28027;BME280;15344;52.342;-1.290;2024-03-22T08:04:35;100397.79;;;13.07;100.00
28027;BME280;15344;52.342;-1.290;2024-03-22T08:07:00;100403.42;;;13.03;100.00
28027;BME280;15344;52.342;-1.290;2024-03-22T08:09:25;100404.18;;;12.69;100.00
28027;BME280;15344;52.342;-1.290;2024-03-22T08:11:51;100410.18;;;13.80;100.00
28027;BME280;15344;52.342;-1.290;2024-03-22T08:14:16;100410.17;;;12.64;100.00
28027;BME280;15344;52.342;-1.290;2024-03-22T08:16:42;100406.19;;;13.77;100.00
28027;BME280;15344;52.342;-1.290;2024-03-22T08:19:06;100410.45;;;13.38;100.00
28027;BME280;15344;52.342;-1.290;2024-03-22T08:21:32;100406.18;;;13.31;100.00
28027;BME280;15344;52.342;-1.290;2024-03-22T08:23:57;100413.49;;;13.66;100.00
28027;BME280;15344;52.342;-1.290;2024-03-22T08:26:22;100419.02;;;12.96;100.00
28027;BME280;15344;52.342;-1.290;2024-03-22T08:28:48;100413.84;;;12.74;100.00
28027;BME280;15344;52.342;-1.290;2024-03-22T08:31:13;100417.08;;;12.47;100.00
28027;BME280;15344;52.342;-1.290;2024-03-22T08:33:38;100413.18;;;13.62;100.00
28027;BME280;15344;52.342;-1.290;2024-03-22T08:36:05;100418.56;;;13.64;100.00
28027;BME280;15344;52.342;-1.290;2024-03-22T08:38:29;100417.43;;;13.74;100.00
28027;BME280;15344;52.342;-1.290;2024-03-22T08:40:54;100418.68;;;13.64;100.00
28027;BME280;15344;52.342;-1.290;2024-03-22T08:43:19;100421.95;;;13.51;100.00
28027;BME280;15344;52.342;-1.290;2024-03-22T08:45:45;100422.80;;;13.32;100.00
28027;BME280;15344;52.342;-1.290;2024-03-22T08:48:10;100422.80;;;13.31;100.00
28027;BME280;15344;52.342;-1.290;2024-03-22T08:50:35;100421.13;;;13.20;100.00
28027;BME280;15344;52.342;-1.290;2024-03-22T08:53:01;100422.48;;;14.06;100.00
28027;BME280;15344;52.342;-1.290;2024-03-22T08:55:26;100420.31;;;13.97;100.00
28027;BME280;15344;52.342;-1.290;2024-03-22T08:57:51;100424.03;;;14.10;100.00
28027;BME280;15344;52.342;-1.290;2024-03-22T09:00:17;100423.21;;;13.85;100.00
28027;BME280;15344;52.342;-1.290;2024-03-22T09:02:42;100423.02;;;13.64;100.00
28027;BME280;15344;52.342;-1.290;2024-03-22T09:05:07;100420.53;;;14.10;100.00
28027;BME280;15344;52.342;-1.290;2024-03-22T09:07:32;100421.71;;;13.62;100.00
28027;BME280;15344;52.342;-1.290;2024-03-22T09:09:59;100424.80;;;13.54;100.00
28027;BME280;15344;52.342;-1.290;2024-03-22T09:12:23;100422.94;;;13.49;100.00
28027;BME280;15344;52.342;-1.290;2024-03-22T09:14:49;100426.24;;;13.22;100.00
28027;BME280;15344;52.342;-1.290;2024-03-22T09:17:14;100426.06;;;12.48;100.00
28027;BME280;15344;52.342;-1.290;2024-03-22T09:19:40;100425.81;;;13.35;95.68
28027;BME280;15344;52.342;-1.290;2024-03-22T09:22:05;100426.65;;;13.36;95.79
28027;BME280;15344;52.342;-1.290;2024-03-22T09:24:31;100429.35;;;13.68;89.12
28027;BME280;15344;52.342;-1.290;2024-03-22T09:26:56;100416.57;;;13.25;89.22
28027;BME280;15344;52.342;-1.290;2024-03-22T09:29:21;100418.56;;;13.79;87.45
28027;BME280;15344;52.342;-1.290;2024-03-22T09:31:46;100418.95;;;14.71;83.49
28027;BME280;15344;52.342;-1.290;2024-03-22T09:34:12;100421.54;;;14.65;84.11
28027;BME280;15344;52.342;-1.290;2024-03-22T09:36:37;100423.29;;;14.45;82.51
28027;BME280;15344;52.342;-1.290;2024-03-22T09:39:02;100424.30;;;14.66;80.14
28027;BME280;15344;52.342;-1.290;2024-03-22T09:41:27;100426.82;;;14.30;79.32
28027;BME280;15344;52.342;-1.290;2024-03-22T09:43:53;100426.82;;;15.13;79.58
28027;BME280;15344;52.342;-1.290;2024-03-22T09:46:19;100438.06;;;14.94;78.25
28027;BME280;15344;52.342;-1.290;2024-03-22T09:48:43;100436.38;;;15.03;76.55
28027;BME280;15344;52.342;-1.290;2024-03-22T09:51:08;100438.45;;;15.77;75.75
28027;BME280;15344;52.342;-1.290;2024-03-22T09:53:34;100435.50;;;15.57;75.19
28027;BME280;15344;52.342;-1.290;2024-03-22T09:56:00;100438.22;;;14.87;73.04
28027;BME280;15344;52.342;-1.290;2024-03-22T09:58:26;100430.35;;;15.18;75.47
28027;BME280;15344;52.342;-1.290;2024-03-22T10:00:50;100425.57;;;15.08;77.08
28027;BME280;15344;52.342;-1.290;2024-03-22T10:03:16;100433.15;;;14.63;79.16
28027;BME280;15344;52.342;-1.290;2024-03-22T10:05:40;100428.70;;;15.49;75.27
28027;BME280;15344;52.342;-1.290;2024-03-22T10:08:06;100425.89;;;15.60;75.21
28027;BME280;15344;52.342;-1.290;2024-03-22T10:10:31;100425.32;;;15.12;74.45
28027;BME280;15344;52.342;-1.290;2024-03-22T10:12:56;100426.25;;;16.07;74.27
28027;BME280;15344;52.342;-1.290;2024-03-22T10:15:23;100429.04;;;16.46;74.19
28027;BME280;15344;52.342;-1.290;2024-03-22T10:17:47;100430.77;;;16.09;74.78
28027;BME280;15344;52.342;-1.290;2024-03-22T10:20:13;100424.33;;;15.32;71.83
28027;BME280;15344;52.342;-1.290;2024-03-22T10:22:37;100432.76;;;14.34;74.79
28027;BME280;15344;52.342;-1.290;2024-03-22T10:25:04;100434.34;;;14.58;75.38
28027;BME280;15344;52.342;-1.290;2024-03-22T10:27:27;100425.35;;;15.45;72.49
28027;BME280;15344;52.342;-1.290;2024-03-22T10:29:53;100428.24;;;15.46;77.42
28027;BME280;15344;52.342;-1.290;2024-03-22T10:32:19;100429.45;;;15.85;78.61
28027;BME280;15344;52.342;-1.290;2024-03-22T10:34:46;100427.61;;;15.74;75.26
28027;BME280;15344;52.342;-1.290;2024-03-22T10:37:12;100428.38;;;15.52;76.96
28027;BME280;15344;52.342;-1.290;2024-03-22T10:39:35;100430.33;;;15.38;75.93
28027;BME280;15344;52.342;-1.290;2024-03-22T10:42:00;100426.49;;;16.20;73.77
28027;BME280;15344;52.342;-1.290;2024-03-22T10:44:25;100421.98;;;15.19;70.85
28027;BME280;15344;52.342;-1.290;2024-03-22T10:46:52;100432.00;;;14.78;71.39
28027;BME280;15344;52.342;-1.290;2024-03-22T10:49:17;100428.65;;;13.82;72.15
28027;BME280;15344;52.342;-1.290;2024-03-22T10:51:43;100422.12;;;15.42;69.06
28027;BME280;15344;52.342;-1.290;2024-03-22T10:54:06;100424.63;;;13.36;69.02
28027;BME280;15344;52.342;-1.290;2024-03-22T10:56:31;100417.34;;;15.88;68.41
28027;BME280;15344;52.342;-1.290;2024-03-22T10:58:56;100415.46;;;16.66;66.42
28027;BME280;15344;52.342;-1.290;2024-03-22T11:01:22;100405.24;;;15.48;66.33
28027;BME280;15344;52.342;-1.290;2024-03-22T11:03:47;100401.25;;;14.97;68.93
28027;BME280;15344;52.342;-1.290;2024-03-22T11:06:12;100403.85;;;15.80;63.10
28027;BME280;15344;52.342;-1.290;2024-03-22T11:08:38;100399.87;;;14.32;64.40
28027;BME280;15344;52.342;-1.290;2024-03-22T11:11:09;100402.84;;;14.94;66.77
28027;BME280;15344;52.342;-1.290;2024-03-22T11:13:28;100403.84;;;14.56;66.98
28027;BME280;15344;52.342;-1.290;2024-03-22T11:15:53;100399.22;;;15.65;66.53
28027;BME280;15344;52.342;-1.290;2024-03-22T11:18:18;100400.54;;;14.93;67.00
28027;BME280;15344;52.342;-1.290;2024-03-22T11:20:43;100401.84;;;12.80;70.53
28027;BME280;15344;52.342;-1.290;2024-03-22T11:23:09;100401.37;;;14.03;71.68
28027;BME280;15344;52.342;-1.290;2024-03-22T11:25:34;100397.99;;;13.95;71.51
28027;BME280;15344;52.342;-1.290;2024-03-22T11:27:59;100398.68;;;14.31;72.04
28027;BME280;15344;52.342;-1.290;2024-03-22T11:30:24;100398.39;;;13.51;70.63
28027;BME280;15344;52.342;-1.290;2024-03-22T11:32:49;100399.61;;;14.73;68.37
28027;BME280;15344;52.342;-1.290;2024-03-22T11:35:15;100401.81;;;14.80;68.74
28027;BME280;15344;52.342;-1.290;2024-03-22T11:37:40;100405.36;;;13.95;70.49
28027;BME280;15344;52.342;-1.290;2024-03-22T11:40:08;100404.31;;;14.18;68.36
28027;BME280;15344;52.342;-1.290;2024-03-22T11:42:32;100398.13;;;14.89;66.36
28027;BME280;15344;52.342;-1.290;2024-03-22T11:44:56;100391.46;;;14.92;66.32
28027;BME280;15344;52.342;-1.290;2024-03-22T11:47:21;100388.33;;;15.27;66.23
28027;BME280;15344;52.342;-1.290;2024-03-22T11:49:46;100383.69;;;15.54;63.64
28027;BME280;15344;52.342;-1.290;2024-03-22T11:52:12;100380.65;;;14.59;63.93
28027;BME280;15344;52.342;-1.290;2024-03-22T11:54:37;100377.62;;;14.86;67.15
28027;BME280;15344;52.342;-1.290;2024-03-22T11:57:03;100380.50;;;15.54;64.48
28027;BME280;15344;52.342;-1.290;2024-03-22T11:59:29;100377.90;;;14.74;66.26
28027;BME280;15344;52.342;-1.290;2024-03-22T12:01:54;100368.96;;;16.14;62.29
28027;BME280;15344;52.342;-1.290;2024-03-22T12:04:18;100376.30;;;14.82;62.65
28027;BME280;15344;52.342;-1.290;2024-03-22T12:06:44;100380.34;;;14.20;60.47
28027;BME280;15344;52.342;-1.290;2024-03-22T12:09:09;100380.89;;;13.76;62.31
28027;BME280;15344;52.342;-1.290;2024-03-22T12:11:33;100379.85;;;13.78;63.62
28027;BME280;15344;52.342;-1.290;2024-03-22T12:13:59;100375.06;;;14.29;60.84
28027;BME280;15344;52.342;-1.290;2024-03-22T12:16:24;100362.10;;;14.72;62.26
28027;BME280;15344;52.342;-1.290;2024-03-22T12:18:49;100363.66;;;14.36;63.77
28027;BME280;15344;52.342;-1.290;2024-03-22T12:21:15;100363.18;;;14.01;60.41
28027;BME280;15344;52.342;-1.290;2024-03-22T12:23:40;100360.94;;;12.94;66.92